Latest Weather Observations for Macquarie Island

IDT60801

Issued at 6:05 am EST Monday 22 September 2014 (issued every 30 minutes, with the page automatically refreshed every 10 minutes)

About weather observations | Map of weather stations | Latest weather observations for TAS | Other Formats
Station Details ID: 300004 Name: MACQUARIE ISLAND Lat: -54.50 Lon: 158.94 Height: 6.0 m
Data from the previous 72 hours. | See also: Recent months at Macquarie Island
Date/Time
EST
Temp
°C
App
Temp
°C
Dew
Point
Rel
Hum
%
Delta-T
°C
Wind Press
QNH
hPa
Press
MSL
hPa
Rain
since 9 am
mm
Dir
 
Spd
km/h
Gust
km/h
Spd
kts
Gust
kts
22/06:00am 3.8 -8.3 3.1 95 0.3 N 56 67 30 36 996.4 996.7 2.2
22/05:30am 3.0 -9.3 2.3 95 0.3 N 56 67 30 36 997.8 - 2.2
22/05:00am 2.4 -10.1 1.1 91 0.5 N 56 67 30 36 998.7 - 2.2
22/04:30am 2.4 -9.4 0.5 87 0.7 N 52 61 28 33 999.8 - 2.2
22/04:00am 1.8 -9.4 -0.4 85 0.8 NNW 48 56 26 30 1000.2 - 2.2
22/03:30am 1.3 -9.0 -1.4 82 0.9 NNW 43 50 23 27 1001.5 - 2.2
22/03:00am 0.7 -9.1 -2.7 78 1.2 NNW 39 44 21 24 1002.6 1002.9 2.2
22/02:30am 0.5 -8.1 -2.5 80 1.0 NNW 33 41 18 22 1003.3 - 2.2
22/02:00am -0.3 -8.5 -4.2 75 1.2 NNW 30 37 16 20 1003.9 - 2.2
22/01:30am -0.7 -7.5 -4.7 74 1.2 NNW 22 30 12 16 1004.2 - 2.2
22/01:00am -0.9 -7.1 -4.6 76 1.1 NNW 19 28 10 15 1005.2 - 2.2
22/12:30am -1.6 -8.1 -5.8 73 1.2 NNW 20 26 11 14 1005.3 - 2.2
22/12:00am -2.2 -8.6 -6.4 73 1.2 NW 19 24 10 13 1005.5 1005.8 2.2
 
Date/Time
EST
Temp
°C
App
Temp
°C
Dew
Point
Rel
Hum
%
Delta-T
°C
Wind Press
QNH
hPa
Press
MSL
hPa
Rain
since 9 am
mm
Dir
 
Spd
km/h
Gust
km/h
Spd
kts
Gust
kts
21/11:30pm -2.4 -8.8 -6.6 73 1.1 W 19 24 10 13 1005.6 - 2.2
21/11:00pm -2.7 -8.7 -7.0 72 1.1 W 17 20 9 11 1005.9 - 2.2
21/10:30pm -2.9 -8.2 -7.2 72 1.1 W 13 17 7 9 1005.3 - 2.2
21/10:00pm -3.0 -7.6 -7.9 69 1.3 SW 9 13 5 7 1005.1 - 2.2
21/09:30pm -2.9 -7.5 -7.6 70 1.2 S 9 11 5 6 1005.2 - 2.2
21/09:00pm -2.9 -7.5 -8.3 66 1.4 SW 9 17 5 9 1004.9 1005.2 2.2
21/08:30pm -2.6 -7.6 -7.7 68 1.3 SSW 11 15 6 8 1005.1 - 2.2
21/08:00pm -2.4 -8.5 -7.5 68 1.4 S 17 20 9 11 1004.9 - 2.2
21/07:30pm -2.3 -7.6 -7.2 69 1.3 S 13 17 7 9 1004.3 - 2.2
21/07:00pm -2.3 -8.0 -7.0 70 1.3 S 15 20 8 11 1003.5 - 2.2
21/06:30pm -2.5 -8.2 -7.4 69 1.3 S 15 20 8 11 1003.1 - 2.2
21/06:00pm -2.5 -9.2 -7.6 68 1.4 S 20 32 11 17 1002.5 1002.8 2.2
21/05:30pm -2.3 -8.9 -7.0 70 1.3 S 20 28 11 15 1001.9 - 2.2
21/05:00pm -2.2 -8.6 -7.1 69 1.3 S 19 26 10 14 1001.4 - 2.2
21/04:30pm -2.1 -8.7 -6.6 71 1.2 S 20 30 11 16 1000.7 - 2.2
21/04:00pm -2.5 -9.0 -7.8 67 1.4 SSW 19 32 10 17 1000.1 - 2.2
21/03:30pm -1.7 -9.0 -6.2 71 1.3 SSW 24 41 13 22 999.5 - 2.2
21/03:00pm -1.2 -7.6 -4.7 77 1.1 S 20 33 11 18 998.9 999.2 2.2
21/02:30pm -1.1 -8.5 -3.8 82 0.8 S 26 39 14 21 998.3 - 2.2
21/02:00pm -1.4 -9.4 -2.7 91 0.4 SSE 30 39 16 21 997.7 - 1.6
21/01:30pm -0.9 -7.5 -3.7 81 0.9 S 22 30 12 16 997.1 - 1.6
21/01:00pm -0.9 -9.3 -2.5 89 0.5 SSE 32 39 17 21 996.6 - 1.6
21/12:30pm -0.9 -9.0 -2.8 87 0.6 SSE 30 39 16 21 995.9 - 1.6
21/12:00pm -0.7 -8.7 -2.6 87 0.6 S 30 37 16 20 995.5 995.8 1.6
21/11:30am -0.9 -8.5 -2.5 89 0.5 SSE 28 35 15 19 995.0 - 1.4
21/11:00am -0.2 -6.1 -1.9 88 0.6 S 19 30 10 16 994.2 - 0.6
21/10:30am -0.5 -7.4 -2.7 85 0.7 SSE 24 30 13 16 993.8 - 0.6
21/10:00am -0.5 -7.7 -2.1 89 0.5 SSE 26 32 14 17 993.3 - 0.6
21/09:30am -0.4 -7.6 -2.0 89 0.5 SSE 26 35 14 19 992.8 - 0.2
21/09:00am -0.4 -8.7 -2.0 89 0.5 SSE 32 39 17 21 992.3 992.6 2.8
21/08:30am -0.2 -8.6 -2.3 86 0.7 SSE 32 41 17 22 991.8 - 2.8
21/08:00am -0.1 -8.7 -2.2 86 0.7 SSE 33 44 18 24 991.4 - 2.6
21/07:30am 0.0 -8.9 -1.9 87 0.7 SSE 35 43 19 23 990.9 - 2.6
21/07:00am 0.2 -8.3 -1.7 87 0.7 S 33 46 18 25 990.3 - 2.6
21/06:30am 0.4 -8.4 -1.5 87 0.7 SSE 35 46 19 25 989.8 - 2.6
21/06:00am 0.8 -8.7 -1.1 87 0.7 SSE 39 46 21 25 989.0 989.3 2.6
21/05:30am 0.9 -7.8 -0.7 89 0.6 S 35 46 19 25 988.5 - 2.6
21/05:00am 0.9 -7.4 -1.5 84 0.8 S 32 48 17 26 988.0 - 2.6
21/04:30am 1.4 -6.9 -1.7 80 1.1 S 32 44 17 24 987.4 - 2.6
21/04:00am 1.5 -6.8 -1.7 79 1.1 S 32 46 17 25 986.8 - 2.6
21/03:30am 1.4 -6.5 -1.2 83 0.9 S 30 54 16 29 986.9 - 2.4
21/03:26am 1.3 -6.5 -0.9 85 0.8 S 30 54 16 29 986.9 - 2.4
21/03:00am 1.0 -4.9 -0.9 87 0.7 SW 20 35 11 19 986.5 986.8 2.4
21/02:35am 1.9 -6.2 0.0 87 0.7 W 32 70 17 38 985.9 - 2.4
21/02:33am 1.7 -5.6 -0.2 87 0.7 W 28 46 15 25 986.1 - 2.2
21/02:30am 1.6 -5.7 -0.3 87 0.7 W 28 44 15 24 986.2 - 2.2
21/02:01am 1.5 -10.8 -0.1 89 0.6 W 54 72 29 39 986.1 - 2.2
21/02:00am 1.4 -11.3 -0.4 88 0.6 W 56 72 30 39 986.1 - 2.2
21/01:34am 1.7 -10.6 -0.1 88 0.7 W 54 72 29 39 986.0 - 2.0
21/01:30am 1.6 -11.2 -0.2 88 0.7 W 57 72 31 39 986.1 - 2.0
21/01:04am 2.1 -11.2 -0.8 81 1.0 W 59 83 32 45 986.4 - 2.0
21/01:00am 2.0 -11.7 -0.7 82 1.0 W 61 76 33 41 986.4 - 2.0
21/12:41am 2.1 -10.8 -0.3 84 0.9 W 57 83 31 45 986.3 - 2.0
21/12:30am 2.1 -10.6 -0.2 85 0.8 W 56 65 30 35 986.5 - 2.0
21/12:00am 1.4 -11.3 -0.7 86 0.8 W 56 74 30 40 986.8 987.1 2.0
 
Date/Time
EST
Temp
°C
App
Temp
°C
Dew
Point
Rel
Hum
%
Delta-T
°C
Wind Press
QNH
hPa
Press
MSL
hPa
Rain
since 9 am
mm
Dir
 
Spd
km/h
Gust
km/h
Spd
kts
Gust
kts
20/11:37pm 1.7 -12.0 -1.0 82 1.0 W 61 82 33 44 986.8 - 1.8
20/11:30pm 1.5 -11.8 -1.1 83 0.9 W 59 76 32 41 986.9 - 1.8
20/11:00pm 1.9 -10.5 -0.8 82 1.0 W 54 76 29 41 987.3 - 1.6
20/10:38pm 2.6 -10.3 -0.5 80 1.1 W 57 76 31 41 987.0 - 1.6
20/10:30pm 2.5 -10.4 -0.4 81 1.1 W 57 69 31 37 987.4 - 1.6
20/10:05pm 2.2 -10.5 -0.5 82 1.0 W 56 78 30 42 987.8 - 1.6
20/10:00pm 2.1 -10.6 -0.5 83 0.9 W 56 70 30 38 988.1 - 1.6
20/09:40pm 2.6 -10.9 -1.9 72 1.6 W 59 78 32 42 988.1 - 1.6
20/09:30pm 2.5 -11.2 -1.1 77 1.3 W 61 76 33 41 988.2 - 1.6
20/09:01pm 2.9 -10.2 -1.8 71 1.7 W 57 76 31 41 988.3 - 1.6
20/09:00pm 2.9 -10.1 -1.6 72 1.6 W 57 70 31 38 988.4 988.7 1.6
20/08:32pm 2.6 -9.6 -2.1 71 1.6 W 52 70 28 38 988.8 - 1.6
20/08:30pm 2.7 -9.8 -1.8 72 1.6 W 54 69 29 37 988.8 - 1.6
20/08:16pm 2.6 -10.9 -2.1 71 1.6 W 59 82 32 44 988.9 - 1.6
20/08:00pm 2.7 -10.2 -0.9 77 1.3 W 57 74 31 40 989.1 - 1.6
20/07:40pm 2.8 -9.5 -0.3 80 1.1 W 54 72 29 39 989.0 - 1.6
20/07:30pm 2.7 -10.0 -0.4 80 1.1 W 56 72 30 39 988.9 - 1.6
20/07:00pm 2.7 -10.9 -0.1 82 1.0 W 61 83 33 45 989.0 - 1.6
20/06:30pm 2.8 -10.4 -0.1 81 1.1 W 59 87 32 47 989.1 - 1.6
20/06:00pm 3.1 -10.7 1.3 88 0.7 W 63 83 34 45 988.8 989.1 1.6
20/05:58pm 3.2 -10.5 1.4 88 0.7 W 63 83 34 45 988.8 - 1.6
20/05:42pm 3.7 -10.2 2.5 92 0.5 W 65 76 35 41 988.5 - 1.6
20/05:38pm 4.3 -9.5 3.3 93 0.4 WNW 65 76 35 41 988.2 - 1.6
20/05:30pm 4.6 -7.0 3.7 94 0.4 NNW 54 72 29 39 987.6 - 1.4
20/05:14pm 4.2 -6.7 3.3 94 0.4 NNW 50 69 27 37 988.0 - 1.4
20/05:00pm 3.9 -7.9 3.0 94 0.4 NNW 54 67 29 36 988.3 - 1.2
20/04:30pm 3.6 -7.1 2.4 92 0.5 NNW 48 61 26 33 989.3 - 0.8
20/04:00pm 3.6 -6.2 2.3 91 0.5 NNW 43 56 23 30 990.6 - 0.8
20/03:30pm 3.2 -7.3 1.4 88 0.7 NNW 46 54 25 29 991.7 - 0.4
20/03:23pm 3.4 -7.8 1.6 88 0.7 N 50 56 27 30 991.9 - 0.4
20/03:08pm 3.6 -5.5 1.8 88 0.7 NNW 39 46 21 25 992.3 - 0.2
20/03:03pm 3.4 -6.8 1.1 85 0.9 N 44 54 24 29 992.5 - 0.2
20/03:00pm 3.4 -7.5 1.1 85 0.9 NW 48 52 26 28 992.6 992.9 0.2
20/02:59pm 3.4 -7.9 1.1 85 0.9 NW 50 52 27 28 992.6 - 0.2
20/02:48pm 3.3 -7.3 0.9 84 0.9 N 46 50 25 27 993.0 - 0.2
20/02:37pm 3.5 -5.7 1.2 85 0.9 NW 39 46 21 25 993.3 - 0.2
20/02:34pm 3.4 -5.8 1.0 84 0.9 N 39 46 21 25 993.4 - 0.2
20/02:30pm 3.3 -6.9 0.7 83 1.0 WNW 44 54 24 29 993.4 - 0.2
20/02:18pm 3.1 -6.2 0.7 84 0.9 WNW 39 46 21 25 993.7 - 0.2
20/02:09pm 3.1 -6.1 1.3 88 0.7 NW 39 43 21 23 994.0 - 0.2
20/02:02pm 2.6 -6.2 1.1 90 0.6 N 37 41 20 22 994.1 - 0.2
20/02:00pm 2.4 -5.7 0.9 90 0.6 NW 33 41 18 22 994.2 - 0.2
20/01:55pm 2.8 -5.7 1.2 89 0.6 N 35 43 19 23 994.4 - 0.2
20/01:49pm 2.9 -5.9 1.1 88 0.7 NNW 37 39 20 21 994.4 - 0.0
20/01:45pm 2.7 -6.2 0.6 86 0.8 NNE 37 41 20 22 994.6 - 0.0
20/01:30pm 2.5 -5.5 0.6 87 0.7 NNW 32 43 17 23 995.0 - 0.0
20/01:00pm 2.4 -5.3 0.1 85 0.8 NNW 30 37 16 20 995.6 - 0.0
20/12:30pm 2.3 -5.1 -0.6 81 1.1 WNW 28 32 15 17 996.2 - 0.0
20/12:00pm 2.5 -5.3 -0.6 80 1.1 W 30 35 16 19 996.9 997.2 0.0
20/11:30am 2.0 -6.3 -1.6 77 1.3 W 32 37 17 20 997.9 - 0.0
20/11:00am 1.9 -6.4 -1.7 77 1.3 W 32 39 17 21 998.4 - 0.0
20/10:30am 1.6 -6.7 -1.6 79 1.1 W 32 37 17 20 998.9 - 0.0
20/10:00am 1.1 -7.8 -2.0 80 1.1 W 35 44 19 24 999.2 - 0.0
20/09:30am 1.0 -7.9 -2.1 80 1.1 W 35 43 19 23 999.5 - 0.0
20/09:00am 0.8 -7.6 -2.4 79 1.1 W 32 37 17 20 1000.0 1000.3 1.0
20/08:30am 0.5 -8.0 -2.9 78 1.2 W 32 41 17 22 1000.5 - 1.0
20/08:00am 0.1 -7.6 -3.3 78 1.1 W 28 37 15 20 1000.6 - 1.0
20/07:30am 0.0 -8.1 -3.4 78 1.1 W 30 39 16 21 1000.8 - 1.0
20/07:00am 0.1 -7.7 -3.6 76 1.2 W 28 39 15 21 1000.8 - 1.0
20/06:30am 0.1 -7.3 -3.6 76 1.2 W 26 33 14 18 1000.9 - 1.0
20/06:00am -0.2 -8.4 -4.3 74 1.3 W 30 39 16 21 1001.1 1001.4 1.0
20/05:30am -0.2 -7.3 -4.4 73 1.3 W 24 41 13 22 1001.1 - 1.0
20/05:00am -0.1 -8.4 -4.5 72 1.4 W 30 50 16 27 1001.2 - 1.0
20/04:30am 0.0 -6.7 -4.1 74 1.3 W 22 41 12 22 1001.1 - 1.0
20/04:00am -0.2 -6.9 -4.4 73 1.3 WSW 22 35 12 19 1001.1 - 1.0
20/03:30am -0.5 -6.9 -4.9 72 1.4 W 20 37 11 20 1001.2 - 1.0
20/03:00am -0.1 -5.9 -4.2 74 1.3 WSW 17 35 9 19 1001.1 1001.4 1.0
20/02:30am 0.8 -4.1 -3.1 75 1.4 SW 13 20 7 11 1001.0 - 1.0
20/02:00am 0.7 -4.1 -2.9 77 1.3 SW 13 17 7 9 1000.8 - 1.0
20/01:30am 1.0 -5.0 -1.9 81 1.0 W 20 35 11 19 1001.0 - 1.0
20/01:00am 0.9 -3.4 -1.5 84 0.8 SW 11 22 6 12 1000.9 - 1.0
20/12:30am 1.1 -3.2 -1.6 82 0.9 SSW 11 19 6 10 1000.9 - 1.0
20/12:00am 1.1 -3.7 -2.3 78 1.2 SSW 13 22 7 12 1000.9 1001.2 1.0
 
Date/Time
EST
Temp
°C
App
Temp
°C
Dew
Point
Rel
Hum
%
Delta-T
°C
Wind Press
QNH
hPa
Press
MSL
hPa
Rain
since 9 am
mm
Dir
 
Spd
km/h
Gust
km/h
Spd
kts
Gust
kts
19/11:30pm 1.7 -4.1 -1.2 81 1.0 S 19 30 10 16 1000.7 - 1.0
19/11:00pm 1.8 -2.8 -0.8 83 0.9 SSW 13 22 7 12 1000.6 - 1.0
19/10:30pm 1.8 -2.7 -0.3 86 0.8 SSW 13 26 7 14 1000.6 - 1.0
19/10:00pm 2.2 -2.7 -0.2 84 0.9 S 15 20 8 11 1000.5 - 1.0
19/09:30pm 2.2 -2.6 -0.1 85 0.8 SW 15 20 8 11 1000.5 - 1.0
19/09:00pm 2.3 -2.9 0.0 85 0.9 SW 17 30 9 16 1000.4 1000.7 1.0
19/08:30pm 2.4 -3.8 0.0 84 0.9 WSW 22 32 12 17 1000.4 - 1.0
19/08:00pm 2.4 -2.0 0.5 87 0.7 SW 13 28 7 15 1000.3 - 1.0
19/07:30pm 2.4 -2.7 0.6 88 0.7 SW 17 28 9 15 1000.1 - 1.0
19/07:12pm 2.5 -4.7 0.6 87 0.7 W 28 46 15 25 1000.1 - 0.6
19/07:00pm 2.7 -4.5 0.6 86 0.8 W 28 41 15 22 1000.1 - 0.6
19/06:30pm 2.9 -5.2 -0.2 80 1.1 W 32 46 17 25 1000.1 - 0.4
19/06:08pm 2.9 -4.6 -1.1 75 1.4 W 28 46 15 25 1000.1 - 0.4
19/06:00pm 3.0 -4.0 -0.6 77 1.3 W 26 39 14 21 1000.1 1000.4 0.4
19/05:30pm 2.8 -1.8 -1.0 76 1.4 W 13 24 7 13 1000.2 - 0.4
19/05:00pm 2.7 -2.0 -1.5 74 1.5 WSW 13 24 7 13 1000.2 - 0.4
19/04:30pm 2.9 -1.7 -1.3 74 1.5 WSW 13 26 7 14 1000.1 - 0.4
19/04:00pm 3.1 -2.0 -1.6 71 1.7 SW 15 28 8 15 999.9 - 0.4
19/03:30pm 3.0 -2.1 -1.7 71 1.7 SW 15 26 8 14 999.7 - 0.4
19/03:00pm 3.2 -2.9 -2.1 68 1.9 SSW 20 33 11 18 999.7 1000.0 0.4
19/02:30pm 3.1 -2.4 -1.8 70 1.7 S 17 26 9 14 999.6 - 0.4
19/02:00pm 3.2 -1.9 -2.1 68 1.9 SSW 15 24 8 13 999.6 - 0.4
19/01:30pm 3.1 -2.9 -1.8 70 1.7 S 20 30 11 16 999.4 - 0.4
19/01:00pm 3.3 -2.7 -1.6 70 1.8 S 20 26 11 14 999.4 - 0.4
19/12:30pm 3.0 -3.7 -0.8 76 1.4 SSE 24 30 13 16 999.5 - 0.4
19/12:00pm 3.0 -3.2 -0.3 79 1.2 SSE 22 28 12 15 999.5 999.8 0.4
19/11:30am 2.7 -4.2 -0.1 82 1.0 SSE 26 32 14 17 999.4 - 0.4
19/11:00am 2.7 -3.8 0.3 84 0.9 SE 24 30 13 16 999.5 - 0.4
19/10:30am 2.4 -4.1 0.6 88 0.7 SE 24 32 13 17 999.6 - 0.4
19/10:00am 2.1 -4.7 0.5 89 0.6 SE 26 32 14 17 999.5 - 0.4
19/09:30am 1.9 -5.3 0.4 90 0.6 S 28 35 15 19 999.7 - 0.2
19/09:15am 1.9 -5.4 0.3 89 0.6 SSE 28 46 15 25 999.7 - 0.0
19/09:00am 2.2 -4.7 0.4 88 0.7 SSE 26 41 14 22 999.7 1000.0 0.0
19/08:30am 2.6 -3.7 -1.0 77 1.3 SSE 22 32 12 17 999.7 - 0.0
19/08:00am 2.2 -4.1 -1.1 79 1.2 S 22 28 12 15 999.6 - 0.0
19/07:30am 2.5 -5.4 -1.5 75 1.4 SSE 30 37 16 20 999.4 - 0.0
19/07:00am 2.1 -6.1 -1.2 79 1.2 SSE 32 39 17 21 999.4 - 0.0
19/06:30am 1.9 -6.5 -1.3 79 1.1 SSE 33 41 18 22 999.2 - 0.0

Other Formats:

Comma delimited format used in spreadsheet applications
http://www.bom.gov.au/fwo/IDT60801/IDT60801.94998.axf

JavaScript Object Notation format (JSON) in row-major order
http://www.bom.gov.au/fwo/IDT60801/IDT60801.94998.json